sensor_id;sensor_type;location;lat;lon;timestamp;P1;durP1;ratioP1;P2;durP2;ratioP2
74059;SDS011;62414;53.436;8.828;2023-10-13T00:01:04;60.87;;;14.53;;
74059;SDS011;62414;53.436;8.828;2023-10-13T00:03:30;69.60;;;16.10;;
74059;SDS011;62414;53.436;8.828;2023-10-13T00:05:58;71.47;;;15.25;;
74059;SDS011;62414;53.436;8.828;2023-10-13T00:08:23;74.25;;;15.27;;
74059;SDS011;62414;53.436;8.828;2023-10-13T00:10:49;73.93;;;15.90;;
74059;SDS011;62414;53.436;8.828;2023-10-13T00:13:14;74.67;;;16.23;;
74059;SDS011;62414;53.436;8.828;2023-10-13T00:15:40;79.82;;;16.60;;
74059;SDS011;62414;53.436;8.828;2023-10-13T00:18:05;76.87;;;16.93;;
74059;SDS011;62414;53.436;8.828;2023-10-13T00:20:31;84.82;;;16.50;;
74059;SDS011;62414;53.436;8.828;2023-10-13T00:22:58;88.63;;;17.20;;
74059;SDS011;62414;53.436;8.828;2023-10-13T00:25:23;90.93;;;17.80;;
74059;SDS011;62414;53.436;8.828;2023-10-13T00:27:49;88.73;;;16.90;;
74059;SDS011;62414;53.436;8.828;2023-10-13T00:30:14;87.73;;;17.87;;
74059;SDS011;62414;53.436;8.828;2023-10-13T00:32:39;93.80;;;17.70;;
74059;SDS011;62414;53.436;8.828;2023-10-13T00:35:05;84.77;;;18.07;;
74059;SDS011;62414;53.436;8.828;2023-10-13T00:37:31;97.10;;;19.25;;
74059;SDS011;62414;53.436;8.828;2023-10-13T00:39:58;90.87;;;18.20;;
74059;SDS011;62414;53.436;8.828;2023-10-13T00:42:23;93.10;;;18.45;;
74059;SDS011;62414;53.436;8.828;2023-10-13T00:44:49;93.10;;;17.87;;
74059;SDS011;62414;53.436;8.828;2023-10-13T00:47:14;92.00;;;18.03;;
74059;SDS011;62414;53.436;8.828;2023-10-13T00:49:40;88.82;;;18.30;;
74059;SDS011;62414;53.436;8.828;2023-10-13T00:52:06;99.97;;;19.47;;
74059;SDS011;62414;53.436;8.828;2023-10-13T00:54:31;92.07;;;19.42;;
74059;SDS011;62414;53.436;8.828;2023-10-13T00:56:58;97.72;;;20.00;;
74059;SDS011;62414;53.436;8.828;2023-10-13T00:59:24;99.90;;;18.80;;
74059;SDS011;62414;53.436;8.828;2023-10-13T01:01:50;101.65;;;19.80;;
74059;SDS011;62414;53.436;8.828;2023-10-13T01:04:15;98.17;;;19.47;;
74059;SDS011;62414;53.436;8.828;2023-10-13T01:06:40;106.17;;;19.47;;
74059;SDS011;62414;53.436;8.828;2023-10-13T01:09:07;103.20;;;18.70;;
74059;SDS011;62414;53.436;8.828;2023-10-13T01:11:33;101.97;;;18.87;;
74059;SDS011;62414;53.436;8.828;2023-10-13T01:14:00;97.18;;;19.65;;
74059;SDS011;62414;53.436;8.828;2023-10-13T01:16:25;95.60;;;19.07;;
74059;SDS011;62414;53.436;8.828;2023-10-13T01:18:50;112.47;;;20.40;;
74059;SDS011;62414;53.436;8.828;2023-10-13T01:21:16;108.33;;;20.63;;
74059;SDS011;62414;53.436;8.828;2023-10-13T01:23:43;98.60;;;18.93;;
74059;SDS011;62414;53.436;8.828;2023-10-13T01:26:09;103.43;;;19.90;;
74059;SDS011;62414;53.436;8.828;2023-10-13T01:28:34;113.40;;;20.80;;
74059;SDS011;62414;53.436;8.828;2023-10-13T01:31:00;108.65;;;20.33;;
74059;SDS011;62414;53.436;8.828;2023-10-13T01:33:25;112.57;;;20.10;;
74059;SDS011;62414;53.436;8.828;2023-10-13T01:35:50;98.60;;;19.93;;
74059;SDS011;62414;53.436;8.828;2023-10-13T01:38:16;114.07;;;21.07;;
74059;SDS011;62414;53.436;8.828;2023-10-13T01:40:43;116.23;;;21.27;;
74059;SDS011;62414;53.436;8.828;2023-10-13T01:43:08;114.43;;;21.75;;
74059;SDS011;62414;53.436;8.828;2023-10-13T01:45:34;110.60;;;20.73;;
74059;SDS011;62414;53.436;8.828;2023-10-13T01:47:59;113.63;;;21.27;;
74059;SDS011;62414;53.436;8.828;2023-10-13T01:50:25;126.93;;;22.33;;
74059;SDS011;62414;53.436;8.828;2023-10-13T01:52:51;119.93;;;21.53;;
74059;SDS011;62414;53.436;8.828;2023-10-13T01:55:17;119.60;;;22.00;;
74059;SDS011;62414;53.436;8.828;2023-10-13T01:57:44;128.27;;;21.83;;
74059;SDS011;62414;53.436;8.828;2023-10-13T02:00:10;132.82;;;23.02;;
74059;SDS011;62414;53.436;8.828;2023-10-13T02:02:37;120.38;;;21.58;;
74059;SDS011;62414;53.436;8.828;2023-10-13T02:05:03;127.00;;;22.50;;
74059;SDS011;62414;53.436;8.828;2023-10-13T02:07:29;126.03;;;21.88;;
74059;SDS011;62414;53.436;8.828;2023-10-13T02:09:54;136.27;;;23.17;;
74059;SDS011;62414;53.436;8.828;2023-10-13T02:12:20;118.03;;;22.50;;
74059;SDS011;62414;53.436;8.828;2023-10-13T02:14:47;123.00;;;21.93;;
74059;SDS011;62414;53.436;8.828;2023-10-13T02:17:12;112.68;;;20.42;;
74059;SDS011;62414;53.436;8.828;2023-10-13T02:19:38;107.87;;;20.50;;
74059;SDS011;62414;53.436;8.828;2023-10-13T02:22:03;98.70;;;19.00;;
74059;SDS011;62414;53.436;8.828;2023-10-13T02:24:29;92.75;;;19.17;;
74059;SDS011;62414;53.436;8.828;2023-10-13T02:26:54;85.93;;;17.90;;
74059;SDS011;62414;53.436;8.828;2023-10-13T02:29:19;95.70;;;17.93;;
74059;SDS011;62414;53.436;8.828;2023-10-13T02:31:46;91.13;;;18.53;;
74059;SDS011;62414;53.436;8.828;2023-10-13T02:34:12;83.40;;;17.63;;
74059;SDS011;62414;53.436;8.828;2023-10-13T02:36:37;86.68;;;18.30;;
74059;SDS011;62414;53.436;8.828;2023-10-13T02:39:04;88.17;;;17.23;;
74059;SDS011;62414;53.436;8.828;2023-10-13T02:41:30;91.43;;;19.40;;
74059;SDS011;62414;53.436;8.828;2023-10-13T02:43:55;85.75;;;18.40;;
74059;SDS011;62414;53.436;8.828;2023-10-13T02:46:22;92.30;;;18.77;;
74059;SDS011;62414;53.436;8.828;2023-10-13T02:48:49;95.63;;;20.15;;
74059;SDS011;62414;53.436;8.828;2023-10-13T02:51:15;97.15;;;20.75;;
74059;SDS011;62414;53.436;8.828;2023-10-13T02:53:41;102.30;;;20.10;;
74059;SDS011;62414;53.436;8.828;2023-10-13T02:56:07;112.10;;;22.05;;
74059;SDS011;62414;53.436;8.828;2023-10-13T02:58:32;114.40;;;22.67;;
74059;SDS011;62414;53.436;8.828;2023-10-13T03:00:58;123.00;;;22.27;;
74059;SDS011;62414;53.436;8.828;2023-10-13T03:03:24;129.97;;;23.30;;
74059;SDS011;62414;53.436;8.828;2023-10-13T03:05:50;129.53;;;23.93;;
74059;SDS011;62414;53.436;8.828;2023-10-13T03:08:16;117.15;;;23.70;;
74059;SDS011;62414;53.436;8.828;2023-10-13T03:10:41;122.70;;;23.37;;
74059;SDS011;62414;53.436;8.828;2023-10-13T03:13:07;115.50;;;22.80;;
74059;SDS011;62414;53.436;8.828;2023-10-13T03:15:33;121.83;;;24.97;;
74059;SDS011;62414;53.436;8.828;2023-10-13T03:17:58;117.80;;;23.37;;
74059;SDS011;62414;53.436;8.828;2023-10-13T03:20:24;131.93;;;25.07;;
74059;SDS011;62414;53.436;8.828;2023-10-13T03:22:53;133.43;;;25.50;;
74059;SDS011;62414;53.436;8.828;2023-10-13T03:25:18;127.30;;;25.80;;
74059;SDS011;62414;53.436;8.828;2023-10-13T03:27:44;120.53;;;25.10;;
74059;SDS011;62414;53.436;8.828;2023-10-13T03:30:09;130.43;;;25.80;;
74059;SDS011;62414;53.436;8.828;2023-10-13T03:32:35;132.60;;;27.00;;
74059;SDS011;62414;53.436;8.828;2023-10-13T03:35:02;126.85;;;25.88;;
74059;SDS011;62414;53.436;8.828;2023-10-13T03:37:28;124.18;;;26.75;;
74059;SDS011;62414;53.436;8.828;2023-10-13T03:39:55;130.30;;;26.30;;
74059;SDS011;62414;53.436;8.828;2023-10-13T03:42:20;134.52;;;27.80;;
74059;SDS011;62414;53.436;8.828;2023-10-13T03:44:46;131.67;;;27.80;;
74059;SDS011;62414;53.436;8.828;2023-10-13T03:47:11;130.93;;;27.87;;
74059;SDS011;62414;53.436;8.828;2023-10-13T03:49:37;134.52;;;27.25;;
74059;SDS011;62414;53.436;8.828;2023-10-13T03:52:02;139.97;;;29.77;;
74059;SDS011;62414;53.436;8.828;2023-10-13T03:54:28;135.73;;;28.25;;
74059;SDS011;62414;53.436;8.828;2023-10-13T03:56:55;133.60;;;27.73;;
74059;SDS011;62414;53.436;8.828;2023-10-13T03:59:21;139.02;;;29.33;;
74059;SDS011;62414;53.436;8.828;2023-10-13T04:01:46;138.83;;;28.67;;
74059;SDS011;62414;53.436;8.828;2023-10-13T04:04:12;135.88;;;27.98;;
74059;SDS011;62414;53.436;8.828;2023-10-13T04:06:40;142.23;;;28.65;;
74059;SDS011;62414;53.436;8.828;2023-10-13T04:09:06;134.33;;;28.70;;
74059;SDS011;62414;53.436;8.828;2023-10-13T04:11:32;138.05;;;28.52;;
74059;SDS011;62414;53.436;8.828;2023-10-13T04:13:58;137.63;;;28.80;;
74059;SDS011;62414;53.436;8.828;2023-10-13T04:16:24;137.05;;;28.23;;
74059;SDS011;62414;53.436;8.828;2023-10-13T04:18:49;132.10;;;27.20;;
74059;SDS011;62414;53.436;8.828;2023-10-13T04:21:15;129.13;;;26.70;;
74059;SDS011;62414;53.436;8.828;2023-10-13T04:23:40;133.90;;;26.93;;
74059;SDS011;62414;53.436;8.828;2023-10-13T04:26:05;118.43;;;25.47;;
74059;SDS011;62414;53.436;8.828;2023-10-13T04:28:31;104.53;;;23.77;;
74059;SDS011;62414;53.436;8.828;2023-10-13T04:30:58;109.87;;;25.03;;
74059;SDS011;62414;53.436;8.828;2023-10-13T04:33:23;125.65;;;25.35;;
74059;SDS011;62414;53.436;8.828;2023-10-13T04:35:49;119.82;;;25.88;;
74059;SDS011;62414;53.436;8.828;2023-10-13T04:38:15;123.80;;;25.57;;
74059;SDS011;62414;53.436;8.828;2023-10-13T04:40:40;122.47;;;25.33;;
74059;SDS011;62414;53.436;8.828;2023-10-13T04:43:06;121.07;;;25.27;;
74059;SDS011;62414;53.436;8.828;2023-10-13T04:45:32;124.82;;;26.48;;
74059;SDS011;62414;53.436;8.828;2023-10-13T04:47:59;121.57;;;25.80;;
74059;SDS011;62414;53.436;8.828;2023-10-13T04:50:25;123.57;;;26.25;;
74059;SDS011;62414;53.436;8.828;2023-10-13T04:52:51;119.70;;;26.97;;
74059;SDS011;62414;53.436;8.828;2023-10-13T04:55:16;119.93;;;26.97;;
74059;SDS011;62414;53.436;8.828;2023-10-13T04:57:42;117.57;;;26.30;;
74059;SDS011;62414;53.436;8.828;2023-10-13T05:00:07;117.83;;;25.87;;
74059;SDS011;62414;53.436;8.828;2023-10-13T05:02:33;115.72;;;25.17;;
74059;SDS011;62414;53.436;8.828;2023-10-13T05:05:00;109.13;;;24.07;;
74059;SDS011;62414;53.436;8.828;2023-10-13T05:07:26;107.88;;;24.27;;
74059;SDS011;62414;53.436;8.828;2023-10-13T05:09:51;112.47;;;24.87;;
74059;SDS011;62414;53.436;8.828;2023-10-13T05:12:17;98.93;;;23.70;;
74059;SDS011;62414;53.436;8.828;2023-10-13T05:14:42;99.77;;;23.60;;
74059;SDS011;62414;53.436;8.828;2023-10-13T05:17:08;103.50;;;23.83;;
74059;SDS011;62414;53.436;8.828;2023-10-13T05:19:34;104.20;;;22.77;;
74059;SDS011;62414;53.436;8.828;2023-10-13T05:22:00;100.13;;;23.70;;
74059;SDS011;62414;53.436;8.828;2023-10-13T05:24:26;106.35;;;23.77;;
74059;SDS011;62414;53.436;8.828;2023-10-13T05:26:52;98.03;;;22.10;;
74059;SDS011;62414;53.436;8.828;2023-10-13T05:29:17;101.22;;;24.00;;
74059;SDS011;62414;53.436;8.828;2023-10-13T05:31:43;101.57;;;23.13;;
74059;SDS011;62414;53.436;8.828;2023-10-13T05:34:08;97.87;;;22.77;;
74059;SDS011;62414;53.436;8.828;2023-10-13T05:36:34;96.37;;;23.20;;
74059;SDS011;62414;53.436;8.828;2023-10-13T05:39:00;99.57;;;23.37;;
74059;SDS011;62414;53.436;8.828;2023-10-13T05:41:26;104.85;;;24.38;;
74059;SDS011;62414;53.436;8.828;2023-10-13T05:43:51;105.57;;;23.70;;
74059;SDS011;62414;53.436;8.828;2023-10-13T05:46:17;103.18;;;23.90;;
74059;SDS011;62414;53.436;8.828;2023-10-13T05:48:42;109.47;;;23.87;;
74059;SDS011;62414;53.436;8.828;2023-10-13T05:51:08;102.33;;;23.90;;
74059;SDS011;62414;53.436;8.828;2023-10-13T05:53:33;100.68;;;25.48;;
74059;SDS011;62414;53.436;8.828;2023-10-13T05:56:03;101.30;;;24.43;;
74059;SDS011;62414;53.436;8.828;2023-10-13T05:58:29;97.88;;;23.70;;
74059;SDS011;62414;53.436;8.828;2023-10-13T06:00:54;109.77;;;24.07;;
74059;SDS011;62414;53.436;8.828;2023-10-13T06:03:20;110.78;;;24.67;;
74059;SDS011;62414;53.436;8.828;2023-10-13T06:05:45;104.23;;;24.30;;
74059;SDS011;62414;53.436;8.828;2023-10-13T06:08:11;98.77;;;23.63;;
74059;SDS011;62414;53.436;8.828;2023-10-13T06:10:36;95.53;;;23.17;;
74059;SDS011;62414;53.436;8.828;2023-10-13T06:13:04;94.03;;;22.40;;
74059;SDS011;62414;53.436;8.828;2023-10-13T06:15:29;93.63;;;22.63;;
74059;SDS011;62414;53.436;8.828;2023-10-13T06:17:54;95.57;;;23.00;;
74059;SDS011;62414;53.436;8.828;2023-10-13T06:20:20;91.32;;;22.23;;
74059;SDS011;62414;53.436;8.828;2023-10-13T06:22:47;88.87;;;21.77;;
74059;SDS011;62414;53.436;8.828;2023-10-13T06:25:12;89.53;;;21.40;;
74059;SDS011;62414;53.436;8.828;2023-10-13T06:27:38;92.67;;;23.50;;
74059;SDS011;62414;53.436;8.828;2023-10-13T06:30:05;90.30;;;21.37;;
74059;SDS011;62414;53.436;8.828;2023-10-13T06:32:31;90.93;;;21.92;;
74059;SDS011;62414;53.436;8.828;2023-10-13T06:34:57;91.73;;;21.67;;
74059;SDS011;62414;53.436;8.828;2023-10-13T06:37:23;84.13;;;22.05;;
74059;SDS011;62414;53.436;8.828;2023-10-13T06:39:48;79.97;;;21.23;;
74059;SDS011;62414;53.436;8.828;2023-10-13T06:42:14;88.30;;;22.17;;
74059;SDS011;62414;53.436;8.828;2023-10-13T06:44:39;84.07;;;20.97;;
74059;SDS011;62414;53.436;8.828;2023-10-13T06:47:06;83.15;;;20.17;;
74059;SDS011;62414;53.436;8.828;2023-10-13T06:49:31;79.80;;;20.20;;
74059;SDS011;62414;53.436;8.828;2023-10-13T06:51:57;84.68;;;20.88;;
74059;SDS011;62414;53.436;8.828;2023-10-13T06:54:22;81.50;;;20.27;;
74059;SDS011;62414;53.436;8.828;2023-10-13T06:56:48;75.50;;;19.53;;
74059;SDS011;62414;53.436;8.828;2023-10-13T06:59:13;78.20;;;19.70;;
74059;SDS011;62414;53.436;8.828;2023-10-13T07:01:39;80.72;;;19.13;;
74059;SDS011;62414;53.436;8.828;2023-10-13T07:04:06;81.27;;;19.17;;
74059;SDS011;62414;53.436;8.828;2023-10-13T07:06:32;72.10;;;18.48;;
74059;SDS011;62414;53.436;8.828;2023-10-13T07:08:57;71.43;;;17.90;;
74059;SDS011;62414;53.436;8.828;2023-10-13T07:11:24;79.37;;;19.30;;
74059;SDS011;62414;53.436;8.828;2023-10-13T07:13:49;68.28;;;18.02;;
74059;SDS011;62414;53.436;8.828;2023-10-13T07:16:15;59.38;;;17.65;;
74059;SDS011;62414;53.436;8.828;2023-10-13T07:18:40;61.70;;;17.10;;
74059;SDS011;62414;53.436;8.828;2023-10-13T07:21:08;61.80;;;17.20;;
74059;SDS011;62414;53.436;8.828;2023-10-13T07:23:33;60.33;;;18.25;;
74059;SDS011;62414;53.436;8.828;2023-10-13T07:25:59;60.47;;;17.00;;
74059;SDS011;62414;53.436;8.828;2023-10-13T07:28:24;50.97;;;15.73;;
74059;SDS011;62414;53.436;8.828;2023-10-13T07:30:50;55.33;;;16.63;;
74059;SDS011;62414;53.436;8.828;2023-10-13T07:33:15;53.40;;;16.37;;
74059;SDS011;62414;53.436;8.828;2023-10-13T07:35:40;57.67;;;17.10;;
74059;SDS011;62414;53.436;8.828;2023-10-13T07:38:07;50.10;;;15.43;;
74059;SDS011;62414;53.436;8.828;2023-10-13T07:40:33;53.77;;;15.70;;
74059;SDS011;62414;53.436;8.828;2023-10-13T07:42:58;46.53;;;15.07;;
74059;SDS011;62414;53.436;8.828;2023-10-13T07:45:24;51.67;;;15.93;;
74059;SDS011;62414;53.436;8.828;2023-10-13T07:47:49;43.33;;;14.70;;
74059;SDS011;62414;53.436;8.828;2023-10-13T07:50:14;42.97;;;14.32;;
74059;SDS011;62414;53.436;8.828;2023-10-13T07:52:40;40.73;;;13.13;;
74059;SDS011;62414;53.436;8.828;2023-10-13T07:55:07;37.00;;;13.50;;
74059;SDS011;62414;53.436;8.828;2023-10-13T07:57:32;36.17;;;12.27;;
74059;SDS011;62414;53.436;8.828;2023-10-13T07:59:58;34.80;;;13.00;;
74059;SDS011;62414;53.436;8.828;2023-10-13T08:02:23;35.13;;;12.93;;
74059;SDS011;62414;53.436;8.828;2023-10-13T08:04:49;35.50;;;12.87;;
74059;SDS011;62414;53.436;8.828;2023-10-13T08:07:14;32.67;;;12.17;;
74059;SDS011;62414;53.436;8.828;2023-10-13T08:09:40;35.33;;;12.55;;
74059;SDS011;62414;53.436;8.828;2023-10-13T08:12:07;34.00;;;12.00;;
74059;SDS011;62414;53.436;8.828;2023-10-13T08:14:32;34.92;;;11.80;;
74059;SDS011;62414;53.436;8.828;2023-10-13T08:16:58;32.50;;;12.07;;
74059;SDS011;62414;53.436;8.828;2023-10-13T08:19:24;35.88;;;12.13;;
74059;SDS011;62414;53.436;8.828;2023-10-13T08:21:50;34.03;;;12.23;;
74059;SDS011;62414;53.436;8.828;2023-10-13T08:24:16;34.85;;;12.65;;
74059;SDS011;62414;53.436;8.828;2023-10-13T08:26:41;32.03;;;12.33;;
74059;SDS011;62414;53.436;8.828;2023-10-13T08:29:08;35.57;;;13.13;;
74059;SDS011;62414;53.436;8.828;2023-10-13T08:31:33;35.17;;;12.93;;
74059;SDS011;62414;53.436;8.828;2023-10-13T08:33:59;35.83;;;14.03;;
74059;SDS011;62414;53.436;8.828;2023-10-13T08:36:24;35.65;;;13.70;;
74059;SDS011;62414;53.436;8.828;2023-10-13T08:38:50;37.37;;;14.17;;
74059;SDS011;62414;53.436;8.828;2023-10-13T08:41:15;38.17;;;14.87;;
74059;SDS011;62414;53.436;8.828;2023-10-13T08:43:40;41.50;;;16.17;;
74059;SDS011;62414;53.436;8.828;2023-10-13T08:46:08;35.60;;;15.50;;
74059;SDS011;62414;53.436;8.828;2023-10-13T08:48:34;36.72;;;15.10;;
74059;SDS011;62414;53.436;8.828;2023-10-13T08:51:00;35.40;;;14.80;;
74059;SDS011;62414;53.436;8.828;2023-10-13T08:53:26;31.07;;;14.00;;
74059;SDS011;62414;53.436;8.828;2023-10-13T08:55:53;32.17;;;13.65;;
74059;SDS011;62414;53.436;8.828;2023-10-13T08:58:19;26.88;;;12.57;;
74059;SDS011;62414;53.436;8.828;2023-10-13T09:00:45;23.97;;;11.93;;
74059;SDS011;62414;53.436;8.828;2023-10-13T09:03:12;26.52;;;10.80;;
74059;SDS011;62414;53.436;8.828;2023-10-13T09:05:38;22.88;;;10.25;;
74059;SDS011;62414;53.436;8.828;2023-10-13T09:08:04;17.90;;;8.60;;
74059;SDS011;62414;53.436;8.828;2023-10-13T09:10:30;16.53;;;8.57;;
74059;SDS011;62414;53.436;8.828;2023-10-13T09:12:55;15.93;;;8.10;;
74059;SDS011;62414;53.436;8.828;2023-10-13T09:15:27;18.13;;;7.63;;
74059;SDS011;62414;53.436;8.828;2023-10-13T09:17:53;16.70;;;7.20;;
74059;SDS011;62414;53.436;8.828;2023-10-13T09:20:28;15.25;;;6.90;;
74059;SDS011;62414;53.436;8.828;2023-10-13T09:22:55;16.90;;;7.00;;
74059;SDS011;62414;53.436;8.828;2023-10-13T09:25:24;15.95;;;6.43;;
74059;SDS011;62414;53.436;8.828;2023-10-13T09:27:49;17.08;;;6.75;;
74059;SDS011;62414;53.436;8.828;2023-10-13T09:30:14;16.57;;;7.07;;
74059;SDS011;62414;53.436;8.828;2023-10-13T09:32:40;18.10;;;7.40;;
74059;SDS011;62414;53.436;8.828;2023-10-13T09:35:06;20.50;;;9.73;;
74059;SDS011;62414;53.436;8.828;2023-10-13T09:37:34;19.25;;;7.53;;
74059;SDS011;62414;53.436;8.828;2023-10-13T09:39:59;20.13;;;8.50;;
74059;SDS011;62414;53.436;8.828;2023-10-13T09:42:25;20.23;;;8.18;;
74059;SDS011;62414;53.436;8.828;2023-10-13T09:44:50;19.30;;;8.60;;
74059;SDS011;62414;53.436;8.828;2023-10-13T09:47:16;17.67;;;7.83;;
74059;SDS011;62414;53.436;8.828;2023-10-13T09:49:46;16.75;;;6.78;;
74059;SDS011;62414;53.436;8.828;2023-10-13T09:52:15;19.25;;;7.75;;
74059;SDS011;62414;53.436;8.828;2023-10-13T09:54:43;16.87;;;7.10;;
74059;SDS011;62414;53.436;8.828;2023-10-13T09:57:10;17.23;;;7.13;;
74059;SDS011;62414;53.436;8.828;2023-10-13T09:59:40;16.85;;;7.70;;
74059;SDS011;62414;53.436;8.828;2023-10-13T10:02:08;15.43;;;7.40;;
74059;SDS011;62414;53.436;8.828;2023-10-13T10:04:34;15.60;;;7.28;;
74059;SDS011;62414;53.436;8.828;2023-10-13T10:07:00;19.80;;;7.53;;
74059;SDS011;62414;53.436;8.828;2023-10-13T10:09:26;16.95;;;7.00;;
74059;SDS011;62414;53.436;8.828;2023-10-13T10:11:57;15.60;;;6.53;;
74059;SDS011;62414;53.436;8.828;2023-10-13T10:14:44;17.95;;;6.68;;
74059;SDS011;62414;53.436;8.828;2023-10-13T10:17:21;16.33;;;7.00;;
74059;SDS011;62414;53.436;8.828;2023-10-13T10:19:47;16.00;;;6.80;;
74059;SDS011;62414;53.436;8.828;2023-10-13T10:22:13;15.30;;;6.82;;
74059;SDS011;62414;53.436;8.828;2023-10-13T10:24:38;16.43;;;6.80;;
74059;SDS011;62414;53.436;8.828;2023-10-13T10:27:05;16.43;;;6.80;;
74059;SDS011;62414;53.436;8.828;2023-10-13T10:29:31;15.15;;;6.65;;
74059;SDS011;62414;53.436;8.828;2023-10-13T10:31:56;14.90;;;6.83;;
74059;SDS011;62414;53.436;8.828;2023-10-13T10:34:22;19.08;;;7.50;;
74059;SDS011;62414;53.436;8.828;2023-10-13T10:36:55;16.50;;;7.43;;
74059;SDS011;62414;53.436;8.828;2023-10-13T10:39:20;13.70;;;7.37;;
74059;SDS011;62414;53.436;8.828;2023-10-13T10:41:46;19.73;;;7.83;;
74059;SDS011;62414;53.436;8.828;2023-10-13T10:44:12;18.80;;;8.20;;
74059;SDS011;62414;53.436;8.828;2023-10-13T10:46:38;18.80;;;9.03;;
74059;SDS011;62414;53.436;8.828;2023-10-13T10:49:04;18.38;;;8.82;;
74059;SDS011;62414;53.436;8.828;2023-10-13T10:51:29;22.03;;;9.33;;
74059;SDS011;62414;53.436;8.828;2023-10-13T10:53:57;18.48;;;9.10;;
74059;SDS011;62414;53.436;8.828;2023-10-13T10:56:23;22.88;;;9.70;;
74059;SDS011;62414;53.436;8.828;2023-10-13T10:58:50;17.85;;;9.68;;
74059;SDS011;62414;53.436;8.828;2023-10-13T11:01:19;17.63;;;9.23;;
74059;SDS011;62414;53.436;8.828;2023-10-13T11:03:52;20.30;;;9.90;;
74059;SDS011;62414;53.436;8.828;2023-10-13T11:06:18;22.60;;;9.80;;
74059;SDS011;62414;53.436;8.828;2023-10-13T11:08:44;17.45;;;9.43;;
74059;SDS011;62414;53.436;8.828;2023-10-13T11:11:09;20.13;;;9.50;;
74059;SDS011;62414;53.436;8.828;2023-10-13T11:13:41;15.93;;;9.53;;
74059;SDS011;62414;53.436;8.828;2023-10-13T11:16:07;18.65;;;9.98;;
74059;SDS011;62414;53.436;8.828;2023-10-13T11:18:33;16.73;;;8.93;;
74059;SDS011;62414;53.436;8.828;2023-10-13T11:20:59;17.42;;;9.43;;
74059;SDS011;62414;53.436;8.828;2023-10-13T11:23:24;17.25;;;9.13;;
74059;SDS011;62414;53.436;8.828;2023-10-13T11:25:56;18.73;;;9.30;;
74059;SDS011;62414;53.436;8.828;2023-10-13T11:28:21;19.45;;;10.00;;
74059;SDS011;62414;53.436;8.828;2023-10-13T11:30:47;18.97;;;9.13;;
74059;SDS011;62414;53.436;8.828;2023-10-13T11:33:13;18.80;;;9.20;;
74059;SDS011;62414;53.436;8.828;2023-10-13T11:35:40;19.43;;;8.50;;
74059;SDS011;62414;53.436;8.828;2023-10-13T11:38:05;16.70;;;8.65;;
74059;SDS011;62414;53.436;8.828;2023-10-13T11:40:31;17.30;;;8.30;;
74059;SDS011;62414;53.436;8.828;2023-10-13T11:42:56;17.93;;;7.90;;
74059;SDS011;62414;53.436;8.828;2023-10-13T11:45:22;12.80;;;7.65;;
74059;SDS011;62414;53.436;8.828;2023-10-13T11:47:47;15.63;;;7.07;;
74059;SDS011;62414;53.436;8.828;2023-10-13T11:50:13;15.50;;;7.30;;
74059;SDS011;62414;53.436;8.828;2023-10-13T11:52:40;15.90;;;7.07;;
74059;SDS011;62414;53.436;8.828;2023-10-13T11:55:05;14.98;;;6.63;;
74059;SDS011;62414;53.436;8.828;2023-10-13T11:57:31;16.83;;;6.50;;
74059;SDS011;62414;53.436;8.828;2023-10-13T11:59:56;11.40;;;6.28;;
74059;SDS011;62414;53.436;8.828;2023-10-13T12:02:22;15.80;;;5.80;;
74059;SDS011;62414;53.436;8.828;2023-10-13T12:04:47;14.07;;;5.77;;
74059;SDS011;62414;53.436;8.828;2023-10-13T12:07:12;13.53;;;5.63;;
74059;SDS011;62414;53.436;8.828;2023-10-13T12:09:39;15.10;;;5.32;;
74059;SDS011;62414;53.436;8.828;2023-10-13T12:12:05;14.93;;;5.60;;
74059;SDS011;62414;53.436;8.828;2023-10-13T12:14:30;10.65;;;4.72;;
74059;SDS011;62414;53.436;8.828;2023-10-13T12:16:56;15.07;;;5.10;;
74059;SDS011;62414;53.436;8.828;2023-10-13T12:19:22;13.47;;;5.40;;
74059;SDS011;62414;53.436;8.828;2023-10-13T12:21:48;16.67;;;5.03;;
74059;SDS011;62414;53.436;8.828;2023-10-13T12:24:13;15.50;;;5.63;;
74059;SDS011;62414;53.436;8.828;2023-10-13T12:26:40;13.27;;;4.60;;
74059;SDS011;62414;53.436;8.828;2023-10-13T12:29:06;13.05;;;5.00;;
74059;SDS011;62414;53.436;8.828;2023-10-13T12:31:31;12.87;;;4.70;;
74059;SDS011;62414;53.436;8.828;2023-10-13T12:33:57;13.37;;;4.90;;
74059;SDS011;62414;53.436;8.828;2023-10-13T12:36:22;16.13;;;5.00;;
74059;SDS011;62414;53.436;8.828;2023-10-13T12:38:47;13.77;;;5.30;;
74059;SDS011;62414;53.436;8.828;2023-10-13T12:41:13;15.70;;;5.07;;
74059;SDS011;62414;53.436;8.828;2023-10-13T12:43:40;18.47;;;5.40;;
74059;SDS011;62414;53.436;8.828;2023-10-13T12:46:05;16.52;;;5.15;;
74059;SDS011;62414;53.436;8.828;2023-10-13T12:48:31;12.87;;;4.33;;
74059;SDS011;62414;53.436;8.828;2023-10-13T12:51:00;16.55;;;5.07;;
74059;SDS011;62414;53.436;8.828;2023-10-13T12:53:25;15.77;;;4.90;;
74059;SDS011;62414;53.436;8.828;2023-10-13T12:55:51;13.70;;;4.67;;
74059;SDS011;62414;53.436;8.828;2023-10-13T12:58:16;15.33;;;4.87;;
74059;SDS011;62414;53.436;8.828;2023-10-13T13:00:43;16.48;;;5.10;;
74059;SDS011;62414;53.436;8.828;2023-10-13T13:03:08;15.40;;;5.70;;
74059;SDS011;62414;53.436;8.828;2023-10-13T13:05:34;12.90;;;4.75;;
74059;SDS011;62414;53.436;8.828;2023-10-13T13:08:00;12.13;;;4.63;;
74059;SDS011;62414;53.436;8.828;2023-10-13T13:10:25;14.03;;;5.00;;
74059;SDS011;62414;53.436;8.828;2023-10-13T13:12:50;11.13;;;4.80;;
74059;SDS011;62414;53.436;8.828;2023-10-13T13:15:16;15.07;;;5.10;;
74059;SDS011;62414;53.436;8.828;2023-10-13T13:17:43;15.60;;;4.73;;
74059;SDS011;62414;53.436;8.828;2023-10-13T13:20:08;12.43;;;4.63;;
74059;SDS011;62414;53.436;8.828;2023-10-13T13:22:34;12.25;;;4.65;;
74059;SDS011;62414;53.436;8.828;2023-10-13T13:25:00;13.27;;;4.73;;
74059;SDS011;62414;53.436;8.828;2023-10-13T13:27:25;15.32;;;4.55;;
74059;SDS011;62414;53.436;8.828;2023-10-13T13:29:50;15.90;;;5.03;;
74059;SDS011;62414;53.436;8.828;2023-10-13T13:32:16;12.87;;;4.33;;
74059;SDS011;62414;53.436;8.828;2023-10-13T13:34:43;12.17;;;4.73;;
74059;SDS011;62414;53.436;8.828;2023-10-13T13:37:08;13.77;;;5.00;;
74059;SDS011;62414;53.436;8.828;2023-10-13T13:39:34;14.73;;;5.37;;
74059;SDS011;62414;53.436;8.828;2023-10-13T13:41:59;14.05;;;4.82;;
74059;SDS011;62414;53.436;8.828;2023-10-13T13:44:25;13.67;;;5.00;;
74059;SDS011;62414;53.436;8.828;2023-10-13T13:46:50;14.88;;;5.30;;
74059;SDS011;62414;53.436;8.828;2023-10-13T13:49:16;16.57;;;5.87;;
74059;SDS011;62414;53.436;8.828;2023-10-13T13:51:43;18.43;;;6.30;;
74059;SDS011;62414;53.436;8.828;2023-10-13T13:54:09;20.83;;;6.53;;
74059;SDS011;62414;53.436;8.828;2023-10-13T13:56:34;14.73;;;6.13;;
74059;SDS011;62414;53.436;8.828;2023-10-13T13:58:59;15.10;;;5.97;;
74059;SDS011;62414;53.436;8.828;2023-10-13T14:01:25;16.45;;;5.80;;
74059;SDS011;62414;53.436;8.828;2023-10-13T14:03:51;16.50;;;5.87;;
74059;SDS011;62414;53.436;8.828;2023-10-13T14:06:17;16.35;;;6.20;;
74059;SDS011;62414;53.436;8.828;2023-10-13T14:08:45;18.63;;;5.60;;
74059;SDS011;62414;53.436;8.828;2023-10-13T14:11:10;17.03;;;5.97;;
74059;SDS011;62414;53.436;8.828;2023-10-13T14:13:36;15.88;;;6.75;;
74059;SDS011;62414;53.436;8.828;2023-10-13T14:16:01;15.47;;;5.67;;